• Join FlightAware (Why Join?)
  • Login
  • US Flag 
11:48AM EDT


 

Airport Tracker/Info


-or-


 

Live Flight TrackerFlight Track Log ✈ N41PG ✈ 24-Jul-2013 ✈ KPDK - KIND

Flight Track Log - Related Links

Times and Time Zones

All times are in EDT time to prevent confusion due to time zone crossing. See the N41PG flight status page for this flight to view local times or setup timezone preferences in your user account.

Time Position Orientation Groundspeed Altitude Reporting Facility
EDT Latitude Longitude Course Direction KTS MPH feet Rate Location/Type
03:36PM 33.9167 -84.2833 12° North 192 221 2,300  Level Atlanta TRACON
03:37PM 33.9833 -84.2667 12° North 241 277 4,300 1,860 Climbing Atlanta TRACON
03:38PM 34.0333 -84.3167 320° Northwest 260 299 6,100 1,860 Climbing Atlanta TRACON
03:39PM 34.0833 -84.3833 312° West 274 315 7,900 1,740 Climbing Atlanta TRACON
03:40PM 34.1422 -84.4556 315° West 274 315 9,700 1,500 Climbing Atlanta Center
03:41PM 34.1961 -84.5183 316° Northwest 284 327 11,200 1,620 Climbing Atlanta Center
03:42PM 34.2500 -84.5842 315° West 284 327 13,000 1,380 Climbing Atlanta Center
03:43PM 34.3103 -84.6525 317° Northwest 284 327 14,000 540 Climbing Atlanta Center
03:44PM 34.3725 -84.7233 317° Northwest 295 339 14,100 720 Climbing Atlanta Center
03:45PM 34.4539 -84.7567 341° North 295 339 15,500 1,440 Climbing Atlanta Center
03:46PM 34.5350 -84.7725 351° North 295 339 17,000 1,440 Climbing Atlanta Center
03:47PM 34.6206 -84.7908 350° North 290 334 18,500 1,320 Climbing Atlanta Center
03:48PM 34.6892 -84.8092 348° North 290 334 19,700 1,260 Climbing Atlanta Center
03:49PM 34.7664 -84.8278 349° North 279 321 21,000 1,200 Climbing Atlanta Center
03:50PM 34.8456 -84.8436 351° North 279 321 22,100 1,020 Climbing Atlanta Center
03:51PM 34.9228 -84.8594 350° North 279 321 23,100 900 Climbing Atlanta Center
03:52PM 35.0039 -84.8781 349° North 279 321 24,000 900 Climbing Atlanta Center
03:53PM 35.0853 -84.8967 349° North 284 327 25,000 900 Climbing Atlanta Center
03:54PM 35.1664 -84.9128 351° North 289 333 25,900 480 Climbing Atlanta Center
03:55PM 35.2497 -84.9314 350° North 294 338 26,000  Climbing Atlanta Center
03:56PM 35.3372 -84.9503 350° North 301 346 26,000  Level Atlanta Center
03:57PM 35.4311 -84.9692 351° North 320 368 26,000 300 Level Atlanta Center
03:58PM 35.5206 -84.9906 349° North 325 374 26,700 600 Climbing Atlanta Center
03:59PM 35.6103 -85.0094 350° North 325 374 27,300 660 Climbing Atlanta Center
04:00PM 35.6975 -85.0308 349° North 325 374 28,100 780 Climbing Atlanta Center
04:01PM 35.7831 -85.0525 348° North 320 368 28,900 600 Climbing Atlanta Center
04:02PM 35.8725 -85.0714 350° North 315 362 29,400 420 Climbing Atlanta Center
04:03PM 35.9975 -85.0953 351° North 320 368 30,000 180 Climbing Indianapolis Center
04:04PM 36.1069 -85.1189 350° North 330 380 30,000  Level Indianapolis Center
04:05PM 36.2008 -85.1400 350° North 338 389 30,000  Level Indianapolis Center
04:06PM 36.2969 -85.1606 350° North 349 402 30,000  Level Indianapolis Center
04:07PM 36.3928 -85.1819 350° North 349 402 30,000  Level Indianapolis Center
04:08PM 36.4881 -85.2036 350° North 348 400 30,000  Level Indianapolis Center
04:10PM 36.5844 -85.2253 350° North 349 402 30,000  Level Indianapolis Center
04:11PM 36.6792 -85.2456 350° North 348 400 30,000  Level Indianapolis Center
04:12PM 36.7933 -85.2722 349° North 348 400 30,000  Level Indianapolis Center
04:13PM 36.8883 -85.2953 349° North 348 400 30,000  Level Indianapolis Center
04:14PM 36.9844 -85.3189 349° North 350 403 30,000  Level Indianapolis Center
04:15PM 37.0850 -85.3408 350° North 354 407 30,000  Level Indianapolis Center
04:16PM 37.1814 -85.3625 350° North 351 404 30,000  Level Indianapolis Center
04:17PM 37.2789 -85.3800 352° North 352 405 30,000  Level Indianapolis Center
04:18PM 37.3919 -85.4022 351° North 350 403 30,000  Level Indianapolis Center
04:19PM 37.4889 -85.4214 351° North 350 403 30,000 -240 Level Indianapolis Center
04:20PM 37.5864 -85.4408 351° North 354 407 29,600 -540 Descending Indianapolis Center
04:21PM 37.6875 -85.4617 351° North 362 417 29,000 -300 Descending Indianapolis Center
04:22PM 37.7894 -85.4800 352° North 367 422 29,000  Level Indianapolis Center
04:23PM 37.8900 -85.4989 352° North 367 422 29,000  Level Indianapolis Center
04:24PM 37.9883 -85.5186 351° North 359 413 29,000  Level Indianapolis Center
04:25PM 38.1058 -85.5406 352° North 355 409 29,000 -480 Level Indianapolis Center
04:26PM 38.2058 -85.5603 351° North 361 415 28,100 -960 Descending Indianapolis Center
04:27PM 38.3114 -85.5811 351° North 378 435 27,100 -1,080 Descending Indianapolis Center
04:28PM 38.4172 -85.6019 351° North 383 441 25,900 -1,140 Descending Indianapolis Center
04:29PM 38.5186 -85.6219 351° North 371 427 24,800 -960 Descending Indianapolis Center
04:30PM 38.6117 -85.6411 351° North 341 392 24,000 -1,260 Descending Indianapolis Center
04:31PM 38.7236 -85.6611 352° North 349 402 22,300 -1,860 Descending Indianapolis Center
04:32PM 38.8178 -85.6769 353° North 345 397 20,200 -2,040 Descending Indianapolis Center
04:33PM 38.9069 -85.6933 352° North 329 379 18,100 -2,040 Descending Indianapolis Center
04:34PM 38.9922 -85.7089 352° North 313 360 16,000 -2,040 Descending Indianapolis Center
04:35PM 39.0772 -85.7253 351° North 311 358 14,000 -1,620 Descending Indianapolis Center
04:36PM 39.1742 -85.7436 352° North 296 341 12,700 -1,380 Descending Indianapolis Center
04:37PM 39.2547 -85.7578 352° North 294 338 11,200 -1,260 Descending Indianapolis Center
04:38PM 39.3278 -85.7883 342° North 283 326 10,100 -600 Descending Indianapolis Center
04:39PM 39.3831 -85.8547 317° Northwest 276 318 10,000 -180 Descending Indianapolis Center
04:41PM 39.4406 -85.9194 319° Northwest 274 315 9,800 -960 Descending Indianapolis Center
04:42PM 39.5067 -85.9994 317° Northwest 274 315 8,100 -900 Descending Indianapolis Center
04:43PM 39.5628 -86.0656 318° Northwest 272 313 8,000 -60 Descending Indianapolis Center
04:44PM 39.6183 -86.1325 317° Northwest 273 314 8,000 -480 Level Indianapolis Center
04:45PM 39.6425 -86.2211 290° West 277 319 7,100 -1,260 Descending Indianapolis Center
04:46PM 39.5972 -86.2956 232° Southwest 267 307 5,500 -1,980 Descending Indianapolis Center
04:47PM 39.5936 -86.3694 266° West 259 298 3,100 -1,680 Descending Indianapolis Center
04:48PM 39.6561 -86.3669 North 237 273 2,100 -1,020 Descending Indianapolis Center
04:49PM 39.7028 -86.3253 34° Northeast 186 214 1,000 -1,080 Descending Indianapolis Center
04:51PM 39.7173 -86.2947 142° Southeast  Level Estimated